Port Allen, Hawaii
Current Conditions -  °F | °C
As of 3:56 PM on Monday 22 Dec 2014 (Local Time) from PHBK Reporting Station
Clear Clear  
Wind Chill: 74°   Ceiling: Unl
Heat Index: 74°   Visibility: 10mi
Dew Point: 58°   Wind: 22mph
Humidity: 57%   Direction: 20°NNE
Pressure: 30.01"   Gusts: 33mph
Location:  21.9°N, 159.6°W
Report Text: PHBK 230156Z AUTO 02019G29KT 10SM CLR 23/14 A3001 RMK AO2 PK WND 02035/0107 RAE05 SLP165 P0000 T02330144
Loading
Personal Weather Stations






























Interactive Weather Map New forecast layout! Learn more

10-Day Weather Forecast

Advertisements
Track Severe Weather on mobile